Thornhill, Canada
Current Conditions -  °F | °C
As of 4:00 AM on Sunday 23 Nov 2014 (Local Time) from CYKZ Reporting Station
Haze Haze  
Wind Chill: 43°   Ceiling: 1300
Heat Index: 43°   Visibility: 6mi
Dew Point: 43°   Wind: 2mph
Humidity: 100%   Direction: 240°WSW
Pressure: 29.94"   Gusts: NA
Location:  43.8°N, 79.42°W
Report Text: CYKZ 230900Z 24002KT 6SM BR FEW005 OVC013 06/06 A2994 RMKSF2ST6 SLP146
Loading
Personal Weather Stations






























Interactive Weather Map New forecast layout! Learn more

10-Day Weather Forecast

Advertisements
Track Severe Weather on mobile